createdAt,value
2018-09-03T00:03:32.906Z,64.80
2018-09-03T00:08:36.032Z,64.70
2018-09-03T00:13:39.121Z,64.80
2018-09-03T00:18:42.316Z,64.40
2018-09-03T00:23:45.441Z,64.30
2018-09-03T00:28:48.535Z,64.80
2018-09-03T00:33:56.914Z,65.00
2018-09-03T00:39:05.423Z,65.20
2018-09-03T00:44:13.971Z,65.00
2018-09-03T00:49:17.072Z,65.10
2018-09-03T00:54:20.200Z,65.10
2018-09-03T00:59:23.287Z,64.80
2018-09-03T01:04:26.410Z,65.10
2018-09-03T01:09:29.484Z,65.30
2018-09-03T01:14:32.603Z,65.70
2018-09-03T01:19:35.702Z,65.40
2018-09-03T01:24:38.791Z,65.00
2018-09-03T01:29:41.903Z,65.80
2018-09-03T01:34:44.987Z,65.60
2018-09-03T01:39:48.104Z,65.80
2018-09-03T01:44:51.199Z,66.10
2018-09-03T01:49:54.295Z,65.70
2018-09-03T01:54:57.407Z,66.00
2018-09-03T02:00:00.512Z,66.10
2018-09-03T02:05:03.635Z,66.70
2018-09-03T02:10:06.746Z,66.40
2018-09-03T02:15:09.848Z,66.50
2018-09-03T02:20:12.979Z,67.10
2018-09-03T02:25:16.074Z,67.30
2018-09-03T02:30:26.071Z,67.70
2018-09-03T02:35:29.282Z,68.20
2018-09-03T02:40:32.364Z,67.90
2018-09-03T02:45:35.491Z,68.50
2018-09-03T02:50:38.616Z,68.40
2018-09-03T02:55:41.708Z,68.40
2018-09-03T03:00:44.803Z,68.50
2018-09-03T03:05:47.922Z,68.40
2018-09-03T03:10:51.043Z,67.90
2018-09-03T03:15:54.150Z,68.40
2018-09-03T03:20:57.241Z,68.30
2018-09-03T03:26:00.322Z,68.70
2018-09-03T03:31:03.413Z,69.80
2018-09-03T03:36:06.524Z,69.60
2018-09-03T03:41:09.617Z,69.40
2018-09-03T03:46:12.707Z,69.90
2018-09-03T03:51:16.076Z,69.70
2018-09-03T03:56:19.163Z,69.90
2018-09-03T04:01:22.262Z,70.50
2018-09-03T04:06:25.370Z,70.80
2018-09-03T04:11:28.519Z,70.30
2018-09-03T04:16:31.628Z,70.10
2018-09-03T04:21:34.747Z,70.20
2018-09-03T04:26:37.863Z,70.00
2018-09-03T04:31:40.963Z,71.10
2018-09-03T04:36:44.063Z,71.00
2018-09-03T04:41:47.146Z,71.20
2018-09-03T04:46:50.240Z,70.80
2018-09-03T04:51:53.332Z,72.10
2018-09-03T04:56:56.412Z,72.70
2018-09-03T05:01:59.528Z,72.40
2018-09-03T05:07:02.620Z,72.60
2018-09-03T05:12:06.243Z,72.80
2018-09-03T05:17:09.344Z,73.60
2018-09-03T05:22:12.464Z,73.90
2018-09-03T05:27:15.561Z,74.10
2018-09-03T05:32:18.670Z,73.50
2018-09-03T05:37:21.779Z,74.50
2018-09-03T05:42:24.864Z,75.40
2018-09-03T05:47:27.984Z,75.30
2018-09-03T05:52:31.138Z,75.10
2018-09-03T05:57:34.220Z,75.90
2018-09-03T06:02:37.341Z,75.70
2018-09-03T06:07:41.194Z,76.20
2018-09-03T06:12:44.307Z,76.20
2018-09-03T06:17:47.442Z,76.80
2018-09-03T06:22:50.595Z,77.30
2018-09-03T06:27:53.710Z,77.80
2018-09-03T06:32:56.855Z,77.80
2018-09-03T06:37:59.990Z,79.00
2018-09-03T06:43:03.091Z,78.80
2018-09-03T06:48:06.188Z,78.80
2018-09-03T06:53:09.304Z,79.80
2018-09-03T06:58:12.409Z,79.60
2018-09-03T07:03:15.495Z,78.30
2018-09-03T07:08:18.608Z,77.50
2018-09-03T07:13:21.711Z,77.70
2018-09-03T07:18:24.807Z,78.60
2018-09-03T07:23:27.880Z,78.90
2018-09-03T07:28:30.987Z,78.40
2018-09-03T07:33:34.095Z,78.70
2018-09-03T07:38:37.287Z,79.70
2018-09-03T07:43:40.394Z,79.80
2018-09-03T07:48:43.510Z,80.50
2018-09-03T07:53:46.629Z,79.70
2018-09-03T07:58:49.715Z,79.10
2018-09-03T08:03:52.899Z,77.80
2018-09-03T08:08:56.010Z,77.10
2018-09-03T08:13:59.138Z,75.60
2018-09-03T08:19:02.255Z,74.80
2018-09-03T08:24:05.636Z,72.70
2018-09-03T08:29:08.843Z,72.30
2018-09-03T08:34:11.963Z,71.20
2018-09-03T08:39:15.081Z,70.40
2018-09-03T08:44:24.728Z,69.20
2018-09-03T08:49:27.818Z,67.90
2018-09-03T08:54:30.936Z,67.70
2018-09-03T08:59:34.046Z,66.70
2018-09-03T09:04:37.174Z,66.30
2018-09-03T09:09:40.828Z,67.10
2018-09-03T09:14:43.947Z,64.90
2018-09-03T09:19:47.085Z,63.10
2018-09-03T09:24:50.164Z,63.50
2018-09-03T09:29:53.288Z,62.60
2018-09-03T09:34:56.406Z,62.10
2018-09-03T09:39:59.524Z,60.60
2018-09-03T09:45:02.623Z,59.90
2018-09-03T09:50:05.800Z,59.10
2018-09-03T09:55:08.939Z,58.60
2018-09-03T10:00:16.296Z,58.50
2018-09-03T10:05:19.382Z,58.40
2018-09-03T10:15:32.207Z,56.50
2018-09-03T10:20:41.959Z,56.40
2018-09-03T10:25:45.099Z,55.80
2018-09-03T10:30:48.256Z,55.00
2018-09-03T10:35:51.363Z,55.30
2018-09-03T10:40:54.488Z,53.70
2018-09-03T10:45:57.584Z,53.20
2018-09-03T10:51:00.687Z,53.10
2018-09-03T10:56:03.818Z,52.60
2018-09-03T11:01:06.920Z,52.00
2018-09-03T11:06:10.050Z,51.70
2018-09-03T11:11:19.864Z,51.50
2018-09-03T11:16:22.972Z,50.90
2018-09-03T11:21:26.225Z,50.50
2018-09-03T11:26:29.186Z,50.40
2018-09-03T11:31:32.288Z,50.80
2018-09-03T11:36:35.809Z,49.70
2018-09-03T11:41:39.034Z,48.00
2018-09-03T11:46:42.164Z,47.30
2018-09-03T11:51:45.275Z,46.00
2018-09-03T11:56:48.401Z,46.80
2018-09-03T12:01:51.765Z,46.20
2018-09-03T12:06:54.886Z,44.60
2018-09-03T12:11:58.059Z,44.90
2018-09-03T12:17:01.183Z,45.00
2018-09-03T12:22:04.308Z,44.30
2018-09-03T12:27:07.415Z,43.30
2018-09-03T12:32:10.538Z,43.20
2018-09-03T12:37:13.667Z,44.10
2018-09-03T12:42:16.771Z,44.20
2018-09-03T12:47:19.891Z,43.30
2018-09-03T12:52:23.068Z,43.30
2018-09-03T12:57:26.179Z,42.90
2018-09-03T13:02:29.291Z,42.60
2018-09-03T13:07:32.508Z,43.90
2018-09-03T13:12:35.620Z,43.90
2018-09-03T13:17:38.723Z,43.10
2018-09-03T13:22:42.274Z,42.70
2018-09-03T13:27:45.468Z,41.70
2018-09-03T13:32:48.693Z,41.40
2018-09-03T13:37:51.815Z,42.00
2018-09-03T13:42:54.948Z,42.40
2018-09-03T13:47:58.072Z,41.60
2018-09-03T13:53:01.167Z,42.20
2018-09-03T13:58:04.304Z,42.50
2018-09-03T14:03:07.412Z,42.00
2018-09-03T14:08:10.574Z,41.50
2018-09-03T14:13:13.740Z,42.60
2018-09-03T14:18:16.943Z,41.80
2018-09-03T14:23:20.094Z,41.80
2018-09-03T14:28:23.206Z,42.00
2018-09-03T14:33:26.298Z,42.70
2018-09-03T14:38:29.437Z,42.30
2018-09-03T14:43:32.539Z,43.00
2018-09-03T14:48:35.743Z,43.50
2018-09-03T14:53:39.021Z,43.60
2018-09-03T14:58:42.143Z,44.10
2018-09-03T15:03:45.252Z,44.50
2018-09-03T15:08:48.435Z,44.40
2018-09-03T15:13:57.744Z,44.60
2018-09-03T15:19:02.557Z,44.80
2018-09-03T15:24:05.951Z,44.90
2018-09-03T15:29:09.151Z,45.10
2018-09-03T15:34:12.336Z,45.20
2018-09-03T15:39:15.580Z,45.30
2018-09-03T15:44:18.759Z,45.40
2018-09-03T15:49:21.963Z,45.30
2018-09-03T15:54:25.079Z,45.60
2018-09-03T15:59:28.211Z,45.80
2018-09-03T16:04:31.328Z,46.10
2018-09-03T16:09:34.435Z,45.90
2018-09-03T16:14:37.544Z,46.00
2018-09-03T16:19:40.681Z,46.40
2018-09-03T16:24:43.806Z,46.60
2018-09-03T16:29:46.923Z,46.90
2018-09-03T16:34:50.116Z,47.10
2018-09-03T16:39:53.251Z,47.40
2018-09-03T16:44:56.434Z,47.40
2018-09-03T16:49:59.555Z,47.20
2018-09-03T16:55:02.767Z,47.50
2018-09-03T17:00:05.891Z,47.70
2018-09-03T17:05:09.014Z,47.80
2018-09-03T17:10:12.160Z,47.80
2018-09-03T17:15:15.292Z,47.80
2018-09-03T17:20:18.543Z,48.00
2018-09-03T17:25:21.602Z,48.10
2018-09-03T17:30:24.683Z,48.10
2018-09-03T17:35:27.823Z,48.20
2018-09-03T17:40:30.963Z,48.40
2018-09-03T17:45:34.092Z,48.40
2018-09-03T17:50:37.727Z,48.60
2018-09-03T17:55:40.829Z,48.90
2018-09-03T18:00:43.928Z,49.00
2018-09-03T18:05:47.050Z,49.30
2018-09-03T18:10:50.182Z,49.80
2018-09-03T18:15:53.391Z,49.90
2018-09-03T18:21:00.035Z,50.30
2018-09-03T18:26:03.147Z,50.60
2018-09-03T18:31:06.315Z,50.90
2018-09-03T18:36:09.503Z,52.00
2018-09-03T18:41:12.618Z,51.60
2018-09-03T18:46:15.828Z,52.00
2018-09-03T18:51:19.012Z,52.10
2018-09-03T18:56:22.141Z,52.50
2018-09-03T19:01:25.256Z,52.70
2018-09-03T19:06:28.384Z,52.90
2018-09-03T19:11:31.478Z,53.20
2018-09-03T19:16:34.591Z,53.50
2018-09-03T19:21:37.725Z,54.00
2018-09-03T19:26:40.848Z,54.40
2018-09-03T19:31:43.972Z,54.50
2018-09-03T19:36:47.181Z,55.00
2018-09-03T19:41:50.232Z,54.90
2018-09-03T19:46:57.527Z,55.30
2018-09-03T19:52:00.854Z,55.50
2018-09-03T19:57:03.915Z,55.90
2018-09-03T20:02:07.168Z,56.20
2018-09-03T20:07:10.311Z,56.20
2018-09-03T20:12:13.430Z,56.30
2018-09-03T20:17:16.558Z,56.30
2018-09-03T20:22:19.587Z,56.60
2018-09-03T20:27:22.702Z,56.70
2018-09-03T20:32:25.819Z,56.90
2018-09-03T20:37:29.043Z,57.10
2018-09-03T20:42:32.139Z,57.30
2018-09-03T20:47:35.296Z,57.60
2018-09-03T20:52:38.432Z,57.80
2018-09-03T20:57:41.528Z,58.10
2018-09-03T21:02:44.616Z,58.30
2018-09-03T21:07:47.734Z,58.50
2018-09-03T21:12:50.830Z,58.50
2018-09-03T21:17:53.952Z,58.80
2018-09-03T21:22:57.051Z,59.00
2018-09-03T21:28:00.175Z,59.00
2018-09-03T21:33:03.288Z,59.20
2018-09-03T21:38:06.402Z,59.60
2018-09-03T21:43:09.575Z,60.10
2018-09-03T21:48:12.693Z,59.80
2018-09-03T21:53:15.812Z,59.80
2018-09-03T21:58:18.891Z,59.90
2018-09-03T22:03:21.983Z,60.20
2018-09-03T22:08:25.149Z,60.40
2018-09-03T22:13:28.247Z,60.90
2018-09-03T22:18:31.579Z,61.00
2018-09-03T22:23:34.683Z,61.40
2018-09-03T22:28:37.796Z,61.20
2018-09-03T22:33:40.898Z,61.50
2018-09-03T22:38:44.056Z,61.70
2018-09-03T22:43:47.269Z,61.90
2018-09-03T22:48:50.362Z,62.60
2018-09-03T22:53:53.730Z,62.80
2018-09-03T22:58:56.843Z,62.90
2018-09-03T23:04:00.264Z,63.40
2018-09-03T23:09:04.844Z,63.60
2018-09-03T23:14:08.421Z,63.60
2018-09-03T23:19:11.516Z,63.80
2018-09-03T23:24:14.650Z,64.50
2018-09-03T23:29:17.798Z,64.70
2018-09-03T23:34:20.911Z,64.90
2018-09-03T23:39:24.042Z,65.40
2018-09-03T23:44:27.143Z,66.00
2018-09-03T23:49:30.237Z,66.00
2018-09-03T23:54:33.359Z,66.10
2018-09-03T23:59:36.434Z,65.40
